sensor_id;sensor_type;location;lat;lon;timestamp;temperature;humidity
23746;DHT22;12053;48.878;9.632;2022-09-09T12:09:51;19.10;99.90
23746;DHT22;12053;48.878;9.632;2022-09-09T12:12:32;19.40;99.90
23746;DHT22;12053;48.878;9.632;2022-09-09T12:15:18;17.20;99.90
23746;DHT22;12053;48.878;9.632;2022-09-09T12:17:56;16.50;99.90
23746;DHT22;12053;48.878;9.632;2022-09-09T12:20:35;16.60;99.90
23746;DHT22;12053;48.878;9.632;2022-09-09T12:23:32;16.80;99.90
23746;DHT22;12053;48.878;9.632;2022-09-09T12:26:31;16.90;99.90
23746;DHT22;12053;48.878;9.632;2022-09-09T12:29:09;17.00;99.90
23746;DHT22;12053;48.878;9.632;2022-09-09T12:36:58;18.40;99.90
23746;DHT22;12053;48.878;9.632;2022-09-09T12:39:35;19.70;99.90
23746;DHT22;12053;48.878;9.632;2022-09-09T12:42:04;20.00;99.90
23746;DHT22;12053;48.878;9.632;2022-09-09T12:44:30;20.30;99.90
23746;DHT22;12053;48.878;9.632;2022-09-09T12:47:01;20.80;99.90
23746;DHT22;12053;48.878;9.632;2022-09-09T12:49:34;20.90;99.90
23746;DHT22;12053;48.878;9.632;2022-09-09T12:52:25;21.40;99.90
23746;DHT22;12053;48.878;9.632;2022-09-09T12:54:53;22.30;99.90
23746;DHT22;12053;48.878;9.632;2022-09-09T12:57:23;22.70;99.90
23746;DHT22;12053;48.878;9.632;2022-09-09T12:59:52;22.70;99.90
23746;DHT22;12053;48.878;9.632;2022-09-09T13:02:24;22.70;99.90
23746;DHT22;12053;48.878;9.632;2022-09-09T13:04:53;22.30;99.90
23746;DHT22;12053;48.878;9.632;2022-09-09T13:07:21;22.40;99.90
23746;DHT22;12053;48.878;9.632;2022-09-09T13:09:48;22.60;99.90
23746;DHT22;12053;48.878;9.632;2022-09-09T13:12:22;23.30;99.90
23746;DHT22;12053;48.878;9.632;2022-09-09T13:14:54;23.80;99.90
23746;DHT22;12053;48.878;9.632;2022-09-09T13:17:26;24.00;99.90
23746;DHT22;12053;48.878;9.632;2022-09-09T13:19:55;21.10;99.90
23746;DHT22;12053;48.878;9.632;2022-09-09T13:22:35;20.70;99.90
23746;DHT22;12053;48.878;9.632;2022-09-09T13:27:35;21.30;99.90
23746;DHT22;12053;48.878;9.632;2022-09-09T13:30:22;21.00;99.90
23746;DHT22;12053;48.878;9.632;2022-09-09T13:35:48;20.40;99.90
23746;DHT22;12053;48.878;9.632;2022-09-09T13:38:16;21.20;99.90
23746;DHT22;12053;48.878;9.632;2022-09-09T13:41:04;22.10;99.90
23746;DHT22;12053;48.878;9.632;2022-09-09T13:43:35;20.80;99.90
23746;DHT22;12053;48.878;9.632;2022-09-09T13:46:06;20.00;99.90
23746;DHT22;12053;48.878;9.632;2022-09-09T13:48:59;20.60;99.90
23746;DHT22;12053;48.878;9.632;2022-09-09T13:51:34;20.00;99.90
23746;DHT22;12053;48.878;9.632;2022-09-09T13:54:01;20.10;99.90
23746;DHT22;12053;48.878;9.632;2022-09-09T13:56:28;20.20;99.90
23746;DHT22;12053;48.878;9.632;2022-09-09T13:58:55;20.20;99.90
23746;DHT22;12053;48.878;9.632;2022-09-09T14:01:22;20.10;99.90
23746;DHT22;12053;48.878;9.632;2022-09-09T14:03:55;19.50;99.90
23746;DHT22;12053;48.878;9.632;2022-09-09T14:06:22;19.00;99.90
23746;DHT22;12053;48.878;9.632;2022-09-09T14:08:49;19.20;99.90
23746;DHT22;12053;48.878;9.632;2022-09-09T14:11:17;19.50;99.90
23746;DHT22;12053;48.878;9.632;2022-09-09T14:13:44;19.20;99.90
23746;DHT22;12053;48.878;9.632;2022-09-09T14:16:11;19.50;99.90
23746;DHT22;12053;48.878;9.632;2022-09-09T14:18:38;19.70;99.90
23746;DHT22;12053;48.878;9.632;2022-09-09T14:21:05;19.50;99.90
23746;DHT22;12053;48.878;9.632;2022-09-09T14:23:32;19.50;99.90
23746;DHT22;12053;48.878;9.632;2022-09-09T14:25:58;20.30;99.90
23746;DHT22;12053;48.878;9.632;2022-09-09T14:28:25;20.00;99.90
23746;DHT22;12053;48.878;9.632;2022-09-09T14:31:12;19.90;99.90
23746;DHT22;12053;48.878;9.632;2022-09-09T14:33:40;20.40;99.90
23746;DHT22;12053;48.878;9.632;2022-09-09T14:36:07;20.50;99.90
23746;DHT22;12053;48.878;9.632;2022-09-09T14:38:36;19.80;99.90
23746;DHT22;12053;48.878;9.632;2022-09-09T14:41:07;19.70;99.90
23746;DHT22;12053;48.878;9.632;2022-09-09T14:43:37;19.60;99.90
23746;DHT22;12053;48.878;9.632;2022-09-09T14:46:08;19.80;99.90
23746;DHT22;12053;48.878;9.632;2022-09-09T14:48:36;19.50;99.90
23746;DHT22;12053;48.878;9.632;2022-09-09T14:51:11;20.00;99.90
23746;DHT22;12053;48.878;9.632;2022-09-09T14:53:40;20.00;99.90
23746;DHT22;12053;48.878;9.632;2022-09-09T14:56:17;20.50;99.90
23746;DHT22;12053;48.878;9.632;2022-09-09T14:58:45;20.60;99.90
23746;DHT22;12053;48.878;9.632;2022-09-09T15:01:15;20.20;99.90
23746;DHT22;12053;48.878;9.632;2022-09-09T15:03:47;19.80;99.90
23746;DHT22;12053;48.878;9.632;2022-09-09T15:06:15;19.30;99.90
23746;DHT22;12053;48.878;9.632;2022-09-09T15:08:43;19.40;99.90
23746;DHT22;12053;48.878;9.632;2022-09-09T15:11:11;19.60;99.90
23746;DHT22;12053;48.878;9.632;2022-09-09T15:13:40;19.90;99.90
23746;DHT22;12053;48.878;9.632;2022-09-09T15:16:16;19.70;99.90
23746;DHT22;12053;48.878;9.632;2022-09-09T15:18:45;19.70;99.90
23746;DHT22;12053;48.878;9.632;2022-09-09T15:21:14;19.50;99.90
23746;DHT22;12053;48.878;9.632;2022-09-09T15:23:42;19.50;99.90
23746;DHT22;12053;48.878;9.632;2022-09-09T15:26:10;19.80;99.90
23746;DHT22;12053;48.878;9.632;2022-09-09T15:28:37;19.60;99.90
23746;DHT22;12053;48.878;9.632;2022-09-09T15:31:07;19.50;99.90
23746;DHT22;12053;48.878;9.632;2022-09-09T15:33:36;19.60;99.90
23746;DHT22;12053;48.878;9.632;2022-09-09T15:36:21;19.40;99.90
23746;DHT22;12053;48.878;9.632;2022-09-09T15:38:49;19.50;99.90
23746;DHT22;12053;48.878;9.632;2022-09-09T15:41:17;19.50;99.90
23746;DHT22;12053;48.878;9.632;2022-09-09T15:43:49;19.40;99.90
23746;DHT22;12053;48.878;9.632;2022-09-09T15:48:56;19.40;99.90
23746;DHT22;12053;48.878;9.632;2022-09-09T15:51:24;19.30;99.90
23746;DHT22;12053;48.878;9.632;2022-09-09T15:54:19;19.60;99.90
23746;DHT22;12053;48.878;9.632;2022-09-09T15:56:50;19.60;98.50
23746;DHT22;12053;48.878;9.632;2022-09-09T15:59:17;19.40;99.40
23746;DHT22;12053;48.878;9.632;2022-09-09T16:01:44;19.30;99.90
23746;DHT22;12053;48.878;9.632;2022-09-09T16:04:11;19.40;99.90
23746;DHT22;12053;48.878;9.632;2022-09-09T16:06:38;19.50;99.90
23746;DHT22;12053;48.878;9.632;2022-09-09T16:09:06;19.50;99.90
23746;DHT22;12053;48.878;9.632;2022-09-09T16:11:36;19.40;99.90
23746;DHT22;12053;48.878;9.632;2022-09-09T16:14:03;19.30;99.40
23746;DHT22;12053;48.878;9.632;2022-09-09T16:16:31;19.30;99.90
23746;DHT22;12053;48.878;9.632;2022-09-09T16:19:00;19.20;99.90
23746;DHT22;12053;48.878;9.632;2022-09-09T16:21:33;19.20;99.90
23746;DHT22;12053;48.878;9.632;2022-09-09T16:24:02;19.00;99.90
23746;DHT22;12053;48.878;9.632;2022-09-09T16:26:32;19.00;99.90
23746;DHT22;12053;48.878;9.632;2022-09-09T16:29:00;18.80;99.90
23746;DHT22;12053;48.878;9.632;2022-09-09T16:31:28;18.80;99.90
23746;DHT22;12053;48.878;9.632;2022-09-09T16:33:56;18.80;99.90
23746;DHT22;12053;48.878;9.632;2022-09-09T16:36:24;18.70;99.90
23746;DHT22;12053;48.878;9.632;2022-09-09T16:38:55;18.70;99.90
23746;DHT22;12053;48.878;9.632;2022-09-09T16:41:25;18.60;99.90
23746;DHT22;12053;48.878;9.632;2022-09-09T16:43:56;18.50;99.90
23746;DHT22;12053;48.878;9.632;2022-09-09T16:46:23;18.60;99.90
23746;DHT22;12053;48.878;9.632;2022-09-09T16:48:51;18.50;99.90
23746;DHT22;12053;48.878;9.632;2022-09-09T16:51:20;18.50;99.90
23746;DHT22;12053;48.878;9.632;2022-09-09T16:53:47;18.50;99.90
23746;DHT22;12053;48.878;9.632;2022-09-09T16:56:17;18.40;99.90
23746;DHT22;12053;48.878;9.632;2022-09-09T16:58:56;18.30;99.90
23746;DHT22;12053;48.878;9.632;2022-09-09T17:01:29;18.30;99.90
23746;DHT22;12053;48.878;9.632;2022-09-09T17:03:57;18.30;99.90
23746;DHT22;12053;48.878;9.632;2022-09-09T17:06:28;18.30;99.90
23746;DHT22;12053;48.878;9.632;2022-09-09T17:08:59;18.20;99.90
23746;DHT22;12053;48.878;9.632;2022-09-09T17:11:28;17.90;99.90
23746;DHT22;12053;48.878;9.632;2022-09-09T17:13:56;17.60;99.90
23746;DHT22;12053;48.878;9.632;2022-09-09T17:16:27;17.40;99.90
23746;DHT22;12053;48.878;9.632;2022-09-09T17:18:55;17.30;99.90
23746;DHT22;12053;48.878;9.632;2022-09-09T17:21:24;17.10;99.90
23746;DHT22;12053;48.878;9.632;2022-09-09T17:23:52;17.00;99.90
23746;DHT22;12053;48.878;9.632;2022-09-09T17:26:22;16.80;99.90
23746;DHT22;12053;48.878;9.632;2022-09-09T17:28:49;16.70;99.90
23746;DHT22;12053;48.878;9.632;2022-09-09T17:31:17;16.60;99.90
23746;DHT22;12053;48.878;9.632;2022-09-09T17:33:46;16.60;99.90
23746;DHT22;12053;48.878;9.632;2022-09-09T17:36:27;16.50;99.90
23746;DHT22;12053;48.878;9.632;2022-09-09T17:38:54;16.30;99.90
23746;DHT22;12053;48.878;9.632;2022-09-09T17:43:49;16.20;99.90
23746;DHT22;12053;48.878;9.632;2022-09-09T17:46:22;16.10;99.90
23746;DHT22;12053;48.878;9.632;2022-09-09T17:48:52;16.00;99.90
23746;DHT22;12053;48.878;9.632;2022-09-09T17:51:21;16.00;99.90
23746;DHT22;12053;48.878;9.632;2022-09-09T17:53:53;15.80;99.90
23746;DHT22;12053;48.878;9.632;2022-09-09T17:56:22;15.70;99.90
23746;DHT22;12053;48.878;9.632;2022-09-09T17:58:50;15.60;99.90
23746;DHT22;12053;48.878;9.632;2022-09-09T18:01:23;15.60;99.90
23746;DHT22;12053;48.878;9.632;2022-09-09T18:03:54;15.60;99.90
23746;DHT22;12053;48.878;9.632;2022-09-09T18:06:25;15.60;99.90
23746;DHT22;12053;48.878;9.632;2022-09-09T18:08:57;15.50;99.90
23746;DHT22;12053;48.878;9.632;2022-09-09T18:11:26;15.40;99.90
23746;DHT22;12053;48.878;9.632;2022-09-09T18:13:55;15.50;99.90
23746;DHT22;12053;48.878;9.632;2022-09-09T18:16:24;15.60;99.90
23746;DHT22;12053;48.878;9.632;2022-09-09T18:18:54;15.60;99.90
23746;DHT22;12053;48.878;9.632;2022-09-09T18:21:21;15.70;99.90
23746;DHT22;12053;48.878;9.632;2022-09-09T18:23:48;15.80;99.90
23746;DHT22;12053;48.878;9.632;2022-09-09T18:26:22;15.80;99.90
23746;DHT22;12053;48.878;9.632;2022-09-09T18:28:57;15.80;99.90
23746;DHT22;12053;48.878;9.632;2022-09-09T18:31:26;15.80;99.90
23746;DHT22;12053;48.878;9.632;2022-09-09T18:33:56;15.80;99.90
23746;DHT22;12053;48.878;9.632;2022-09-09T18:36:29;15.80;99.90
23746;DHT22;12053;48.878;9.632;2022-09-09T18:38:57;15.70;99.90
23746;DHT22;12053;48.878;9.632;2022-09-09T18:41:27;15.70;99.90
23746;DHT22;12053;48.878;9.632;2022-09-09T18:43:57;15.80;99.90
23746;DHT22;12053;48.878;9.632;2022-09-09T18:46:26;15.70;99.90
23746;DHT22;12053;48.878;9.632;2022-09-09T18:48:54;15.70;99.90
23746;DHT22;12053;48.878;9.632;2022-09-09T18:51:24;15.70;99.90
23746;DHT22;12053;48.878;9.632;2022-09-09T18:54:02;15.60;99.90
23746;DHT22;12053;48.878;9.632;2022-09-09T18:56:29;15.50;99.90
23746;DHT22;12053;48.878;9.632;2022-09-09T18:59:00;15.50;99.90
23746;DHT22;12053;48.878;9.632;2022-09-09T19:01:28;15.60;99.90
23746;DHT22;12053;48.878;9.632;2022-09-09T19:03:55;15.60;99.90
23746;DHT22;12053;48.878;9.632;2022-09-09T19:06:25;15.60;99.90
23746;DHT22;12053;48.878;9.632;2022-09-09T19:08:53;15.60;99.90
23746;DHT22;12053;48.878;9.632;2022-09-09T19:11:29;15.60;99.90
23746;DHT22;12053;48.878;9.632;2022-09-09T19:14:01;15.50;99.90
23746;DHT22;12053;48.878;9.632;2022-09-09T19:16:30;15.60;99.90
23746;DHT22;12053;48.878;9.632;2022-09-09T19:18:59;15.50;99.90
23746;DHT22;12053;48.878;9.632;2022-09-09T19:21:35;15.50;99.90
23746;DHT22;12053;48.878;9.632;2022-09-09T19:24:19;15.40;99.90
23746;DHT22;12053;48.878;9.632;2022-09-09T19:26:47;15.40;99.90
23746;DHT22;12053;48.878;9.632;2022-09-09T19:29:16;15.50;99.90
23746;DHT22;12053;48.878;9.632;2022-09-09T19:31:45;15.50;99.90
23746;DHT22;12053;48.878;9.632;2022-09-09T19:34:32;15.40;99.90
23746;DHT22;12053;48.878;9.632;2022-09-09T19:36:59;15.40;99.90
23746;DHT22;12053;48.878;9.632;2022-09-09T19:39:26;15.40;99.90
23746;DHT22;12053;48.878;9.632;2022-09-09T19:41:52;15.40;99.90
23746;DHT22;12053;48.878;9.632;2022-09-09T19:44:19;15.20;99.90
23746;DHT22;12053;48.878;9.632;2022-09-09T19:46:46;15.10;99.90
23746;DHT22;12053;48.878;9.632;2022-09-09T19:49:13;15.00;99.90
23746;DHT22;12053;48.878;9.632;2022-09-09T19:51:44;14.90;99.90
23746;DHT22;12053;48.878;9.632;2022-09-09T19:54:12;15.00;99.90
23746;DHT22;12053;48.878;9.632;2022-09-09T19:56:41;15.00;99.90
23746;DHT22;12053;48.878;9.632;2022-09-09T19:59:09;14.90;99.90
23746;DHT22;12053;48.878;9.632;2022-09-09T20:01:39;14.80;99.90
23746;DHT22;12053;48.878;9.632;2022-09-09T20:04:07;14.70;99.90
23746;DHT22;12053;48.878;9.632;2022-09-09T20:06:36;14.70;99.90
23746;DHT22;12053;48.878;9.632;2022-09-09T20:09:05;14.60;99.90
23746;DHT22;12053;48.878;9.632;2022-09-09T20:11:32;14.60;99.90
23746;DHT22;12053;48.878;9.632;2022-09-09T20:13:59;14.60;99.90
23746;DHT22;12053;48.878;9.632;2022-09-09T20:16:28;14.50;99.90
23746;DHT22;12053;48.878;9.632;2022-09-09T20:18:58;14.50;99.90
23746;DHT22;12053;48.878;9.632;2022-09-09T20:21:27;14.50;99.90
23746;DHT22;12053;48.878;9.632;2022-09-09T20:23:58;14.50;99.90
23746;DHT22;12053;48.878;9.632;2022-09-09T20:26:26;14.30;99.90
23746;DHT22;12053;48.878;9.632;2022-09-09T20:28:55;14.40;99.90
23746;DHT22;12053;48.878;9.632;2022-09-09T20:31:29;14.40;99.90
23746;DHT22;12053;48.878;9.632;2022-09-09T20:33:57;14.50;99.90
23746;DHT22;12053;48.878;9.632;2022-09-09T20:36:27;14.50;99.90
23746;DHT22;12053;48.878;9.632;2022-09-09T20:39:00;14.50;99.90
23746;DHT22;12053;48.878;9.632;2022-09-09T20:41:31;14.50;99.90
23746;DHT22;12053;48.878;9.632;2022-09-09T20:44:18;14.40;99.90
23746;DHT22;12053;48.878;9.632;2022-09-09T20:46:47;14.30;99.90
23746;DHT22;12053;48.878;9.632;2022-09-09T20:49:16;14.40;99.90
23746;DHT22;12053;48.878;9.632;2022-09-09T20:51:44;14.60;99.90
23746;DHT22;12053;48.878;9.632;2022-09-09T20:54:19;14.70;99.90
23746;DHT22;12053;48.878;9.632;2022-09-09T20:56:47;14.70;99.90
23746;DHT22;12053;48.878;9.632;2022-09-09T20:59:23;14.70;99.90
23746;DHT22;12053;48.878;9.632;2022-09-09T21:01:51;14.80;99.90
23746;DHT22;12053;48.878;9.632;2022-09-09T21:04:20;14.90;99.90
23746;DHT22;12053;48.878;9.632;2022-09-09T21:06:48;14.90;99.90
23746;DHT22;12053;48.878;9.632;2022-09-09T21:09:16;15.00;99.90
23746;DHT22;12053;48.878;9.632;2022-09-09T21:11:43;15.00;99.90
23746;DHT22;12053;48.878;9.632;2022-09-09T21:14:10;15.00;99.90
23746;DHT22;12053;48.878;9.632;2022-09-09T21:16:37;15.00;99.90
23746;DHT22;12053;48.878;9.632;2022-09-09T21:19:04;14.90;99.90
23746;DHT22;12053;48.878;9.632;2022-09-09T21:21:31;14.90;99.90
23746;DHT22;12053;48.878;9.632;2022-09-09T21:23:57;14.90;99.90
23746;DHT22;12053;48.878;9.632;2022-09-09T21:26:26;14.90;99.90
23746;DHT22;12053;48.878;9.632;2022-09-09T21:28:52;14.70;99.90
23746;DHT22;12053;48.878;9.632;2022-09-09T21:31:20;14.80;99.90
23746;DHT22;12053;48.878;9.632;2022-09-09T21:33:53;14.70;99.90
23746;DHT22;12053;48.878;9.632;2022-09-09T21:36:19;14.70;99.90
23746;DHT22;12053;48.878;9.632;2022-09-09T21:38:46;14.80;99.90
23746;DHT22;12053;48.878;9.632;2022-09-09T21:41:14;14.80;99.90
23746;DHT22;12053;48.878;9.632;2022-09-09T21:43:42;14.70;99.90
23746;DHT22;12053;48.878;9.632;2022-09-09T21:46:13;14.70;99.90
23746;DHT22;12053;48.878;9.632;2022-09-09T21:48:40;14.70;99.90
23746;DHT22;12053;48.878;9.632;2022-09-09T21:51:13;14.60;99.90
23746;DHT22;12053;48.878;9.632;2022-09-09T21:53:41;14.50;99.90
23746;DHT22;12053;48.878;9.632;2022-09-09T21:56:10;14.50;99.90
23746;DHT22;12053;48.878;9.632;2022-09-09T21:58:38;14.50;99.90
23746;DHT22;12053;48.878;9.632;2022-09-09T22:01:11;14.50;99.90
23746;DHT22;12053;48.878;9.632;2022-09-09T22:03:40;14.40;99.90
23746;DHT22;12053;48.878;9.632;2022-09-09T22:06:09;14.30;99.90
23746;DHT22;12053;48.878;9.632;2022-09-09T22:08:36;14.30;99.90
23746;DHT22;12053;48.878;9.632;2022-09-09T22:11:08;14.30;99.90
